Time;durP1;ratioP1;P1;durP2;ratioP2;P2;SDS_P1;SDS_P2;PMS_P1;PMS_P2;Temp;Humidity;BMP_temperature;BMP_pressure;BME280_temperature;BME280_humidity;BME280_pressure;Samples;Min_cycle;Max_cycle;Signal;HPM_P1;HPM_P2
2022/05/27 00:01:31;;;;;;;4.53;2.05;;;;;;;17.26;52.31;100312.91;2100744;84;34169;-66
2022/05/27 00:04:34;;;;;;;4.60;2.58;;;;;;;17.24;52.23;100308.98;2101268;84;29323;-66
2022/05/27 00:07:36;;;;;;;2.85;1.70;;;;;;;17.25;52.36;100308.00;2060681;84;27760;-66
2022/05/27 00:10:39;;;;;;;4.72;2.30;;;;;;;17.24;52.27;100306.75;2100862;84;29626;-66
2022/05/27 00:13:45;;;;;;;6.12;2.20;;;;;;;17.24;52.36;100299.51;2100989;84;31542;-67
2022/05/27 00:16:48;;;;;;;4.05;1.82;;;;;;;17.24;52.41;100299.51;2101317;84;33346;-66
2022/05/27 00:19:51;;;;;;;4.00;2.60;;;;;;;17.24;52.35;100299.98;2101229;84;29495;-67
2022/05/27 00:22:56;;;;;;;4.00;2.35;;;;;;;17.23;52.50;100289.66;2087371;84;27827;-65
2022/05/27 00:25:58;;;;;;;9.18;1.95;;;;;;;17.22;52.36;100285.22;2010786;88;29548;-65
2022/05/27 00:29:01;;;;;;;6.47;1.90;;;;;;;17.22;52.46;100288.41;2085230;84;31079;-66
2022/05/27 00:32:05;;;;;;;5.75;2.05;;;;;;;17.21;52.47;100286.20;2116872;84;34275;-66
2022/05/27 00:35:08;;;;;;;;;;;;;;;17.20;52.59;100271.45;2086557;85;29366;-67
2022/05/27 00:38:12;;;;;;;3.58;2.00;;;;;;;17.19;52.60;100269.21;2117265;84;27646;-66
2022/05/27 00:41:14;;;;;;;3.15;2.10;;;;;;;17.16;52.55;100268.09;2117094;84;28632;-66
2022/05/27 00:44:17;;;;;;;3.87;2.17;;;;;;;17.15;52.60;100263.19;2117063;84;31173;-67
2022/05/27 00:47:22;;;;;;;4.75;2.25;;;;;;;17.14;52.95;100268.23;2117179;84;33067;-66
2022/05/27 00:50:27;;;;;;;;;;;;;;;17.15;52.63;100263.19;2119691;84;29370;-66
2022/05/27 00:53:38;;;;;;;6.30;2.27;;;;;;;17.16;52.78;100259.97;2117422;84;27663;-68
2022/05/27 00:56:43;;;;;;;3.87;1.80;;;;;;;17.13;52.75;100256.14;2116851;84;29457;-67
2022/05/27 00:59:59;;;;;;;5.12;1.85;;;;;;;17.12;52.87;100259.36;2116718;84;31266;-66
2022/05/27 01:03:02;;;;;;;5.58;1.80;;;;;;;17.11;52.84;100253.57;2082724;85;33075;-65
2022/05/27 01:06:05;;;;;;;5.40;2.02;;;;;;;17.10;52.92;100252.35;2116877;84;30040;-65
2022/05/27 01:09:08;;;;;;;4.62;1.72;;;;;;;17.09;52.85;100243.34;2117148;84;27681;-65
2022/05/27 01:12:27;;;;;;;5.70;2.50;;;;;;;17.08;52.99;100248.39;2117045;84;29048;-66
2022/05/27 01:15:51;;;;;;;2.90;2.00;;;;;;;17.08;53.03;100241.63;2117071;84;31006;-66
2022/05/27 01:23:18;;;;;;;2.90;2.02;;;;;;;17.08;53.08;100236.72;2116800;84;30505;-66
2022/05/27 01:26:44;;;;;;;4.72;2.60;;;;;;;17.06;53.17;100239.52;2117218;84;27681;-69
2022/05/27 01:30:11;;;;;;;;;;;;;;;17.05;53.29;100235.59;2113140;83;29034;-67
2022/05/27 01:33:48;;;;;;;7.45;2.35;;;;;;;17.02;53.32;100228.59;2100684;84;31086;-67
2022/05/27 01:37:05;;;;;;;6.60;2.20;;;;;;;16.99;53.26;100224.77;2101121;84;33799;-69
2022/05/27 01:40:17;;;;;;;2.35;1.95;;;;;;;16.97;53.39;100215.90;2101095;84;29874;-69
2022/05/27 01:43:41;;;;;;;4.47;2.08;;;;;;;16.96;53.46;100208.76;2100714;84;27738;-69
2022/05/27 01:46:46;;;;;;;4.28;1.80;;;;;;;16.96;53.54;100210.11;2100103;84;30766;-69
2022/05/27 01:49:53;;;;;;;6.58;2.60;;;;;;;16.86;53.60;100192.34;2100552;84;31176;-69
2022/05/27 01:53:09;;;;;;;2.02;1.70;;;;;;;16.94;53.60;100199.39;2100511;84;33072;-69
2022/05/27 01:56:25;;;;;;;8.50;1.80;;;;;;;16.93;53.61;100195.43;2101050;84;29444;-68
2022/05/27 01:59:53;;;;;;;3.55;1.90;;;;;;;16.93;53.61;100195.43;2100911;84;28205;-67
2022/05/27 02:03:12;;;;;;;4.67;2.30;;;;;;;16.93;53.58;100193.60;2100867;84;29502;-66
2022/05/27 02:06:28;;;;;;;2.95;1.70;;;;;;;16.88;53.61;100182.27;2094926;83;31400;-68
2022/05/27 02:09:37;;;;;;;2.33;1.77;;;;;;;16.92;53.57;100182.41;2100010;84;33428;-69
2022/05/27 02:12:44;;;;;;;2.87;1.82;;;;;;;16.92;53.57;100171.58;2100916;84;29388;-67
2022/05/27 02:15:49;;;;;;;3.72;1.65;;;;;;;16.93;53.57;100173.31;2101228;84;27738;-67
2022/05/27 02:18:54;;;;;;;;;;;;;;;16.94;53.52;100162.86;2103340;84;29911;-67
2022/05/27 02:21:58;;;;;;;;;;;;;;;16.95;53.55;100163.73;2102882;83;33061;-67
2022/05/27 02:25:08;;;;;;;3.83;1.57;;;;;;;16.94;53.43;100162.86;2100933;84;33788;-66
2022/05/27 02:28:18;;;;;;;6.95;1.52;;;;;;;16.96;53.06;100158.70;2101029;84;29469;-67
2022/05/27 02:31:23;;;;;;;5.12;1.67;;;;;;;16.96;53.06;100158.70;2103072;83;27826;-67
2022/05/27 02:37:57;;;;;;;2.95;1.60;;;;;;;17.02;53.24;100152.81;2111198;84;31847;-66
2022/05/27 02:41:05;;;;;;;;;;;;;;;17.04;53.16;100152.20;2093848;84;33084;-66
2022/05/27 02:44:35;;;;;;;4.03;1.35;;;;;;;17.06;53.24;100149.36;2111566;84;30538;-66
2022/05/27 02:47:54;;;;;;;4.17;2.10;;;;;;;17.07;53.14;100144.31;2129038;80;28155;-69
2022/05/27 02:51:16;;;;;;;2.33;1.77;;;;;;;17.07;53.11;100134.84;2145632;82;28753;-70
2022/05/27 02:54:51;;;;;;;3.25;1.62;;;;;;;17.07;53.02;100126.22;2077457;84;31862;-75
2022/05/27 02:57:53;;;;;;;2.08;1.20;;;;;;;17.10;52.96;100127.33;2043435;87;33871;-69
2022/05/27 03:00:55;;;;;;;4.50;2.47;;;;;;;17.13;52.89;100126.21;2073774;85;29345;-67
2022/05/27 03:03:57;;;;;;;4.22;1.60;;;;;;;17.16;53.02;100120.08;2043439;87;27784;-67
2022/05/27 03:07:24;;;;;;;2.83;1.40;;;;;;;17.16;53.02;100120.08;2073492;85;29917;-67
2022/05/27 03:10:46;;;;;;;1.87;1.40;;;;;;;17.19;52.86;100119.47;2043559;87;31475;-66
2022/05/27 03:14:09;;;;;;;3.05;1.55;;;;;;;17.21;52.76;100108.03;2073557;85;33823;-67
2022/05/27 03:17:48;;;;;;;3.40;1.70;;;;;;;17.23;52.79;100106.91;1983208;89;29487;-68
2022/05/27 03:21:23;;;;;;;2.95;1.42;;;;;;;17.26;52.69;100106.67;2010424;88;28150;-67
2022/05/27 03:24:39;;;;;;;2.02;1.37;;;;;;;17.29;52.70;100104.20;2039528;87;29868;-68
2022/05/27 03:28:02;;;;;;;4.60;1.47;;;;;;;17.31;52.62;100105.78;2008854;88;31172;-67
2022/05/27 03:31:27;;;;;;;2.87;1.37;;;;;;;17.36;52.66;100098.66;1938819;91;34117;-68
2022/05/27 03:35:02;;;;;;;1.57;1.05;;;;;;;17.38;52.71;100107.49;1912125;93;29859;-67
2022/05/27 03:38:19;;;;;;;4.05;1.77;;;;;;;17.41;52.58;100102.34;1887804;94;27879;-68
2022/05/27 03:41:39;;;;;;;1.92;1.45;;;;;;;17.43;52.61;100093.09;1887869;94;28875;-69
2022/05/27 03:44:57;;;;;;;3.25;1.60;;;;;;;17.46;52.69;100094.67;1839718;95;31799;-69
2022/05/27 03:47:59;;;;;;;1.80;1.35;;;;;;;17.48;52.63;100095.92;1857918;94;33107;-67
2022/05/27 03:51:15;;;;;;;2.35;1.52;;;;;;;17.51;52.60;100095.17;1857694;95;29939;-69
2022/05/27 03:54:17;;;;;;;3.55;1.55;;;;;;;17.54;52.63;100088.66;1870459;94;28385;-69
2022/05/27 03:57:20;;;;;;;3.35;1.40;;;;;;;17.56;52.61;100082.59;1913826;91;30175;-69
2022/05/27 04:00:23;;;;;;;4.67;1.60;;;;;;;17.59;52.58;100085.05;1913354;93;31784;-68
2022/05/27 04:03:26;;;;;;;5.35;2.05;;;;;;;17.63;52.64;100090.59;1912996;93;33917;-69
2022/05/27 04:06:28;;;;;;;3.08;1.50;;;;;;;17.67;52.67;100088.48;1937260;90;30636;-69
2022/05/27 04:09:33;;;;;;;4.50;1.52;;;;;;;17.67;52.68;100079.88;2038364;87;27701;-70
2022/05/27 04:12:36;;;;;;;5.33;1.80;;;;;;;17.71;52.69;100088.60;2038812;87;28630;-68
2022/05/27 04:15:39;;;;;;;3.40;1.77;;;;;;;17.73;52.72;100081.21;2125415;81;31254;-69
2022/05/27 04:18:40;;;;;;;5.08;2.05;;;;;;;17.76;52.74;100086.38;2175470;81;33677;-69
2022/05/27 04:21:42;;;;;;;6.45;1.65;;;;;;;17.79;52.79;100085.25;2174989;81;29402;-67
2022/05/27 04:24:44;;;;;;;4.33;1.62;;;;;;;17.82;52.83;100086.36;2173524;81;27710;-69
2022/05/27 04:27:47;;;;;;;4.67;2.12;;;;;;;17.85;52.77;100084.75;2165374;82;29087;-69
2022/05/27 04:30:49;;;;;;;3.85;2.15;;;;;;;17.86;52.82;100077.83;2165890;82;31026;-70
2022/05/27 04:33:51;;;;;;;7.35;2.05;;;;;;;17.89;52.81;100078.06;2165566;82;33952;-70
2022/05/27 04:36:53;;;;;;;3.65;1.72;;;;;;;17.89;52.79;100071.28;2165562;82;29348;-69
2022/05/27 04:39:55;;;;;;;7.08;1.92;;;;;;;17.90;52.77;100066.23;2165858;82;28237;-70
2022/05/27 04:42:57;;;;;;;4.65;1.82;;;;;;;17.92;52.83;100062.42;2165503;82;28619;-70
2022/05/27 04:46:00;;;;;;;4.47;1.80;;;;;;;17.94;52.79;100053.30;2165560;82;31085;-69
2022/05/27 04:49:05;;;;;;;5.87;1.67;;;;;;;17.95;52.79;100053.16;2161616;82;32962;-69
2022/05/27 04:52:07;;;;;;;12.88;2.37;;;;;;;17.96;52.77;100055.36;2160409;81;30583;-68
2022/05/27 04:55:14;;;;;;;3.22;1.55;;;;;;;18.00;52.81;100052.80;2174110;81;28304;-68
2022/05/27 04:58:16;;;;;;;2.55;1.72;;;;;;;18.05;52.83;100053.27;2159678;82;28887;-70
2022/05/27 05:01:18;;;;;;;6.35;1.57;;;;;;;18.12;52.90;100049.03;2113165;83;31717;-68
2022/05/27 05:04:20;;;;;;;8.85;1.47;;;;;;;18.20;52.86;100058.73;2113198;83;32831;-68
2022/05/27 05:07:23;;;;;;;5.65;1.95;;;;;;;18.28;52.80;100047.23;2113264;83;29491;-70
2022/05/27 05:10:25;;;;;;;7.33;1.80;;;;;;;18.36;52.89;100054.70;2113378;83;28246;-68
2022/05/27 05:13:29;;;;;;;6.05;1.82;;;;;;;18.44;52.84;100050.84;2112928;83;28714;-71
2022/05/27 05:16:32;;;;;;;4.30;2.12;;;;;;;18.53;52.82;100050.53;2113222;84;30860;-71
2022/05/27 05:19:36;;;;;;;4.10;1.90;;;;;;;18.61;52.76;100052.06;2113215;83;34069;-70
2022/05/27 05:22:38;;;;;;;4.08;1.80;;;;;;;18.70;53.00;100042.25;2118378;83;29307;-70
2022/05/27 05:25:40;;;;;;;4.17;1.47;;;;;;;18.78;53.46;100041.06;2172847;81;28220;-70
2022/05/27 05:28:42;;;;;;;5.47;1.65;;;;;;;18.83;53.66;100040.16;2172346;81;28693;-69
2022/05/27 05:31:45;;;;;;;5.00;1.67;;;;;;;18.90;53.74;100035.56;2172518;81;31863;-69
2022/05/27 05:34:48;;;;;;;2.50;1.35;;;;;;;18.94;53.65;100035.66;2172267;81;33668;-69
2022/05/27 05:37:51;;;;;;;4.00;1.52;;;;;;;18.99;53.67;100036.11;2172644;81;30144;-70
2022/05/27 05:40:55;;;;;;;;;;;;;;;19.06;53.76;100030.98;2174611;81;27738;-69
2022/05/27 05:43:57;;;;;;;5.10;1.90;;;;;;;19.09;53.61;100038.87;2172717;81;29878;-68
2022/05/27 05:47:01;;;;;;;9.88;1.60;;;;;;;19.06;53.63;100037.78;2172794;81;31016;-69
2022/05/27 05:50:05;;;;;;;3.65;1.50;;;;;;;19.05;53.45;100033.34;2172556;81;33679;-70
2022/05/27 05:53:07;;;;;;;6.10;1.77;;;;;;;18.99;53.37;100026.61;2167262;81;29467;-70
2022/05/27 05:56:10;;;;;;;4.60;1.35;;;;;;;19.00;53.64;100024.27;2159230;82;27642;-69
2022/05/27 05:59:15;;;;;;;4.45;1.60;;;;;;;19.01;53.42;100027.85;2159453;82;28667;-70
2022/05/27 06:02:17;;;;;;;6.62;1.65;;;;;;;18.97;53.45;100024.05;2113243;84;31035;-70
2022/05/27 06:05:19;;;;;;;5.50;1.40;;;;;;;18.94;53.30;100017.53;2112676;84;34070;-70
2022/05/27 06:08:22;;;;;;;4.25;2.33;;;;;;;18.93;53.20;100020.36;2112829;83;29334;-70
2022/05/27 06:11:25;;;;;;;4.60;1.80;;;;;;;18.95;53.28;100011.11;2113160;83;27746;-71
2022/05/27 06:14:27;;;;;;;3.45;1.55;;;;;;;19.02;53.17;100008.70;2112296;83;28798;-71
2022/05/27 06:17:30;;;;;;;5.70;1.70;;;;;;;19.10;53.11;100017.02;2128572;83;31670;-71
2022/05/27 06:20:35;;;;;;;3.80;1.87;;;;;;;19.18;53.13;100012.73;2119271;84;33044;-71
2022/05/27 06:23:37;;;;;;;3.77;1.85;;;;;;;19.21;52.93;100024.17;2116802;84;30113;-70
2022/05/27 06:26:40;;;;;;;7.15;1.65;;;;;;;19.22;52.87;100019.10;2115683;84;27709;-70
2022/05/27 06:36:33;;;;;;;2.45;1.65;;;;;;;19.16;52.67;100014.25;2115170;84;33045;-70
2022/05/27 06:39:37;;;;;;;4.67;1.62;;;;;;;19.16;52.63;100021.03;2091183;84;29461;-68
2022/05/27 06:42:39;;;;;;;4.10;1.80;;;;;;;19.12;52.52;100028.58;2115823;84;28159;-69
2022/05/27 06:45:41;;;;;;;5.60;1.50;;;;;;;19.08;52.62;100026.28;2114466;84;28803;-70
2022/05/27 06:48:44;;;;;;;6.78;1.62;;;;;;;19.02;52.55;100026.34;2115789;83;32275;-70
2022/05/27 06:51:48;;;;;;;8.75;1.87;;;;;;;18.99;52.70;100025.26;2079616;85;33018;-69
2022/05/27 06:54:51;;;;;;;6.93;1.90;;;;;;;18.95;52.86;100026.04;2168042;82;29351;-71
2022/05/27 06:57:55;;;;;;;7.47;2.20;;;;;;;18.92;52.99;100022.72;2168148;82;27702;-71
2022/05/27 07:00:57;;;;;;;3.98;1.75;;;;;;;18.85;53.07;100023.77;2151001;82;29862;-71
2022/05/27 07:04:00;;;;;;;3.87;2.17;;;;;;;18.79;53.26;100022.43;2141141;82;30853;-69
2022/05/27 07:07:04;;;;;;;5.30;1.92;;;;;;;18.75;53.44;100025.08;2113423;84;33419;-70
2022/05/27 07:10:07;;;;;;;4.63;2.20;;;;;;;18.74;53.52;100023.84;2097848;84;29316;-69
2022/05/27 07:13:09;;;;;;;3.72;2.00;;;;;;;18.69;53.67;100033.75;2076447;85;27732;-69
2022/05/27 07:16:12;;;;;;;4.30;2.55;;;;;;;18.62;53.78;100035.27;2113299;84;29059;-70
2022/05/27 07:19:15;;;;;;;5.50;1.82;;;;;;;18.52;54.36;100032.03;2097473;84;31033;-70
2022/05/27 07:22:17;;;;;;;7.55;2.72;;;;;;;18.37;54.49;100036.92;2077822;85;33058;-71
2022/05/27 07:25:20;;;;;;;6.90;2.90;;;;;;;18.28;54.96;100037.73;2167587;81;30191;-70
2022/05/27 07:28:22;;;;;;;7.95;3.30;;;;;;;18.18;55.63;100049.87;2168029;82;27721;-71
2022/05/27 07:31:24;;;;;;;6.40;2.87;;;;;;;18.09;55.69;100047.95;2167479;82;29959;-68
2022/05/27 07:34:27;;;;;;;5.40;2.55;;;;;;;18.06;56.30;100052.28;2167985;82;31036;-69
2022/05/27 07:37:29;;;;;;;6.28;2.92;;;;;;;17.96;56.53;100054.00;2167879;82;33135;-69
2022/05/27 07:40:31;;;;;;;9.25;3.20;;;;;;;17.85;57.04;100055.78;2166655;82;29409;-69
2022/05/27 07:43:33;;;;;;;5.50;2.98;;;;;;;17.80;57.89;100059.88;2167438;82;27682;-71
2022/05/27 07:46:37;;;;;;;6.55;3.35;;;;;;;17.68;58.13;100074.83;2167683;82;29448;-68
2022/05/27 07:49:39;;;;;;;5.30;2.67;;;;;;;17.54;58.82;100073.77;2173799;81;31878;-69
2022/05/27 07:52:43;;;;;;;5.70;2.73;;;;;;;17.41;59.25;100077.45;2179292;81;29695;-69
2022/05/27 07:55:46;;;;;;;5.03;2.77;;;;;;;17.26;60.11;100073.30;2175499;81;30445;-68
2022/05/27 07:58:48;;;;;;;4.08;2.98;;;;;;;17.13;60.50;100075.66;2175579;81;28181;-68
2022/05/27 08:01:50;;;;;;;5.22;3.10;;;;;;;17.01;61.06;100076.66;2175654;81;28641;-66
2022/05/27 08:04:55;;;;;;;3.90;3.17;;;;;;;16.86;61.46;100078.70;2175443;81;31312;-68
2022/05/27 08:07:59;;;;;;;2.05;1.70;;;;;;;16.78;61.71;100078.47;2175242;81;34157;-69
2022/05/27 08:11:01;;;;;;;1.70;1.37;;;;;;;16.61;62.14;100087.42;2175083;81;29648;-68
2022/05/27 08:14:04;;;;;;;1.75;1.40;;;;;;;15.88;62.67;100063.27;2175282;81;27586;-67
2022/05/27 08:17:06;;;;;;;3.17;1.22;;;;;;;15.88;62.67;100063.27;2174893;81;30769;-68
2022/05/27 08:20:17;;;;;;;10.82;1.42;;;;;;;15.79;62.90;100086.40;2153778;81;27810;-69
2022/05/27 08:23:19;;;;;;;4.55;1.42;;;;;;;15.65;63.21;100088.77;2175466;81;33118;-68
2022/05/27 08:26:21;;;;;;;2.35;1.42;;;;;;;15.56;64.15;100097.54;2176174;81;29515;-68
2022/05/27 08:29:23;;;;;;;2.25;1.37;;;;;;;15.48;63.99;100095.91;2175889;81;27808;-68
2022/05/27 08:32:25;;;;;;;1.40;1.10;;;;;;;15.45;64.57;100101.53;2175905;81;29456;-69
2022/05/27 08:38:49;;;;;;;3.55;1.90;;;;;;;15.24;65.89;100093.17;2175912;81;34226;-67
2022/05/27 08:42:05;;;;;;;3.65;1.50;;;;;;;15.24;65.89;100093.17;2175834;81;30545;-68
2022/05/27 08:45:49;;;;;;;4.12;2.12;;;;;;;15.24;66.03;100102.11;2176072;81;28238;-69
2022/05/27 08:48:56;;;;;;;4.70;1.72;;;;;;;15.16;65.94;100103.17;2176264;81;29854;-68
2022/05/27 08:52:38;;;;;;;3.37;1.80;;;;;;;15.05;65.89;100102.59;2175262;81;31540;-68
2022/05/27 08:59:45;;;;;;;6.30;2.30;;;;;;;14.81;66.25;100099.80;2064579;86;30582;-68
2022/05/27 09:03:01;;;;;;;2.37;1.70;;;;;;;14.80;66.69;100094.91;2002172;88;28340;-68
2022/05/27 09:06:05;;;;;;;5.08;2.25;;;;;;;14.84;66.70;100098.25;2002231;88;28694;-67
2022/05/27 09:09:21;;;;;;;6.17;2.62;;;;;;;14.85;66.46;100095.42;2002172;88;30839;-68
2022/05/27 09:13:07;;;;;;;6.08;2.05;;;;;;;14.89;66.71;100100.98;1965683;89;33120;-68
2022/05/27 09:16:26;;;;;;;2.00;1.60;;;;;;;14.88;66.66;100112.75;1965796;90;31484;-68
2022/05/27 09:19:41;;;;;;;6.97;2.30;;;;;;;14.88;67.04;100111.90;1965657;90;27786;-67
2022/05/27 09:23:25;;;;;;;4.50;1.77;;;;;;;14.87;67.18;100125.00;1964338;90;28761;-67
2022/05/27 09:26:48;;;;;;;3.33;2.20;;;;;;;14.85;67.12;100131.84;1890252;94;32274;-68
2022/05/27 09:30:07;;;;;;;3.77;2.47;;;;;;;14.80;67.09;100136.72;1940963;89;32587;-68
2022/05/27 09:33:11;;;;;;;3.65;2.55;;;;;;;14.76;67.33;100141.94;1964615;89;29508;-68
2022/05/27 09:36:24;;;;;;;3.67;2.42;;;;;;;14.70;67.34;100141.89;1985467;88;27802;-70
2022/05/27 09:39:35;;;;;;;5.50;2.35;;;;;;;14.65;67.52;100143.11;1985340;89;28677;-69
2022/05/27 09:42:47;;;;;;;3.98;2.60;;;;;;;14.56;67.88;100117.19;1947683;90;30932;-69
2022/05/27 09:45:57;;;;;;;7.90;3.05;;;;;;;14.56;67.88;100117.19;1979581;89;32401;-68
2022/05/27 09:48:59;;;;;;;4.90;2.27;;;;;;;14.74;68.18;100139.33;1978746;88;30166;-68
2022/05/27 09:52:02;;;;;;;4.22;2.58;;;;;;;14.84;68.23;100146.30;1976807;89;27634;-69
2022/05/27 09:55:24;;;;;;;5.58;3.10;;;;;;;14.91;68.28;100153.47;1990514;89;29884;-68
2022/05/27 09:58:30;;;;;;;3.35;2.67;;;;;;;14.95;68.29;100149.59;1935559;92;31015;-68
2022/05/27 10:01:32;;;;;;;3.17;2.15;;;;;;;15.00;68.46;100166.79;1931131;89;33708;-68
2022/05/27 10:04:34;;;;;;;5.70;3.37;;;;;;;15.03;68.46;100165.23;1997188;89;30574;-68
2022/05/27 10:07:44;;;;;;;4.58;2.15;;;;;;;15.24;68.47;100166.88;1997281;89;27766;-67
2022/05/27 10:10:47;;;;;;;7.03;2.42;;;;;;;15.24;68.47;100166.88;1997245;89;30129;-68
2022/05/27 10:14:10;;;;;;;4.67;2.40;;;;;;;15.34;68.53;100161.69;1997575;89;31689;-66
2022/05/27 10:17:16;;;;;;;4.62;2.50;;;;;;;15.24;68.48;100123.70;1965159;90;33015;-67
2022/05/27 10:20:23;;;;;;;6.90;3.25;;;;;;;15.49;68.51;100149.78;1945013;90;30005;-66
2022/05/27 10:23:39;;;;;;;4.65;3.05;;;;;;;15.53;68.46;100143.69;1987005;89;27709;-66
2022/05/27 10:26:41;;;;;;;3.67;2.33;;;;;;;15.62;68.77;100143.50;1996053;87;28381;-67
2022/05/27 10:29:55;;;;;;;3.95;2.20;;;;;;;15.70;68.53;100146.48;1996365;89;32291;-67
2022/05/27 10:33:20;;;;;;;4.70;2.55;;;;;;;15.77;68.84;100152.30;1996509;89;33184;-65
2022/05/27 10:37:00;;;;;;;7.28;2.80;;;;;;;15.91;68.82;100137.80;1995623;88;30029;-66
2022/05/27 10:40:26;;;;;;;5.58;2.60;;;;;;;16.01;68.48;100136.13;1984799;89;27787;-65
2022/05/27 10:44:04;;;;;;;7.75;2.58;;;;;;;16.08;68.35;100131.12;1984326;89;30128;-66
2022/05/27 10:47:12;;;;;;;6.70;2.02;;;;;;;16.14;68.50;100129.31;1984287;89;32238;-67
2022/05/27 10:50:37;;;;;;;2.33;1.80;;;;;;;16.31;68.14;100117.70;1984493;88;33766;-67
2022/05/27 10:53:47;;;;;;;4.50;2.10;;;;;;;16.31;68.14;100117.70;2009737;86;29904;-67
2022/05/27 11:04:36;;;;;;;4.83;2.58;;;;;;;16.49;68.09;100129.80;2047633;87;32361;-68
2022/05/27 11:07:50;;;;;;;;;;;;;;;16.60;68.28;100126.74;2050035;86;32983;-68
2022/05/27 11:11:12;;;;;;;3.60;1.70;;;;;;;16.66;67.96;100131.19;2104242;84;29118;-67
2022/05/27 11:18:00;;;;;;;2.55;2.30;;;;;;;16.62;67.88;100108.09;2038232;87;30107;-66
2022/05/27 11:21:10;;;;;;;3.08;1.87;;;;;;;16.62;67.88;100108.09;2038371;86;31034;-67
2022/05/27 11:24:24;;;;;;;3.33;2.10;;;;;;;16.63;67.75;100096.77;2040280;87;33445;-66
2022/05/27 11:27:51;;;;;;;3.30;2.22;;;;;;;16.62;67.54;100101.33;2041160;85;29253;-68
2022/05/27 11:31:25;;;;;;;5.80;2.67;;;;;;;16.65;67.67;100087.53;2040199;87;27887;-68
2022/05/27 11:34:32;;;;;;;3.17;2.20;;;;;;;16.62;67.83;100062.11;1978747;89;29106;-66
2022/05/27 11:38:06;;;;;;;2.37;1.92;;;;;;;16.84;67.82;100090.14;1978460;89;31877;-68
2022/05/27 11:41:45;;;;;;;3.60;2.05;;;;;;;16.77;67.08;100104.64;1978774;89;32972;-68
2022/05/27 11:45:25;;;;;;;2.17;1.98;;;;;;;16.67;66.97;100088.78;1978073;90;30204;-67
2022/05/27 11:48:41;;;;;;;5.75;1.62;;;;;;;16.66;67.40;100086.55;1978591;90;28248;-68
2022/05/27 11:52:19;;;;;;;3.05;1.70;;;;;;;16.67;66.96;100057.67;1978467;89;28681;-68
2022/05/27 11:55:38;;;;;;;2.58;1.55;;;;;;;16.67;66.76;100106.36;2021059;87;31987;-69
2022/05/27 11:59:01;;;;;;;4.95;1.75;;;;;;;16.63;66.44;100082.73;2072743;85;33950;-69
2022/05/27 12:02:11;;;;;;;6.78;1.87;;;;;;;16.52;66.26;100090.36;2042369;87;29352;-69
2022/05/27 12:05:22;;;;;;;5.05;1.65;;;;;;;16.52;66.26;100090.36;2045604;86;27562;-69
2022/05/27 12:08:35;;;;;;;2.65;1.80;;;;;;;16.51;66.37;100106.22;2066227;86;29898;-68
2022/05/27 12:11:49;;;;;;;3.12;1.57;;;;;;;16.61;66.58;100109.53;2074858;85;31895;-68
2022/05/27 12:15:04;;;;;;;2.87;1.67;;;;;;;16.75;66.53;100096.30;2045569;86;33235;-69
2022/05/27 12:18:14;;;;;;;2.08;1.50;;;;;;;16.92;66.59;100090.41;2044648;87;30630;-68
2022/05/27 12:21:26;;;;;;;3.75;1.70;;;;;;;17.07;66.33;100072.08;2036237;87;27699;-67
2022/05/27 12:24:39;;;;;;;14.07;2.08;;;;;;;17.21;66.04;100076.90;2099176;84;28627;-70
2022/05/27 12:27:41;;;;;;;4.47;1.92;;;;;;;17.33;65.72;100070.95;2099143;84;31023;-68
2022/05/27 12:30:45;;;;;;;4.87;1.75;;;;;;;17.34;65.48;100060.48;2098596;84;34179;-69
2022/05/27 12:33:47;;;;;;;5.03;2.42;;;;;;;17.40;65.60;100064.91;2078759;84;30185;-68
2022/05/27 12:36:49;;;;;;;4.05;1.98;;;;;;;17.44;65.26;100058.25;2099235;84;27532;-66
2022/05/27 12:40:02;;;;;;;3.08;1.67;;;;;;;17.44;64.96;100062.83;2098713;84;29911;-67
2022/05/27 12:43:27;;;;;;;4.10;1.67;;;;;;;17.44;64.94;100058.25;2028276;87;32254;-69
2022/05/27 12:46:42;;;;;;;3.05;1.60;;;;;;;17.44;65.01;100069.09;2028509;87;33008;-67
2022/05/27 12:49:48;;;;;;;3.15;1.90;;;;;;;17.37;64.58;100065.66;2028725;87;29380;-70
2022/05/27 12:52:57;;;;;;;7.03;2.15;;;;;;;17.33;64.80;100062.83;2030226;87;27824;-65
2022/05/27 13:03:06;;;;;;;3.00;1.85;;;;;;;17.36;64.85;100019.26;1968481;90;34190;-67
2022/05/27 13:06:26;;;;;;;4.92;2.60;;;;;;;17.59;64.90;100027.69;1969437;90;30000;-72
2022/05/27 13:09:44;;;;;;;4.62;2.08;;;;;;;17.81;64.66;100019.09;1969554;90;27832;-69
2022/05/27 13:13:01;;;;;;;5.03;2.40;;;;;;;18.00;64.11;100019.79;1969448;90;28750;-65
2022/05/27 13:16:14;;;;;;;5.72;2.00;;;;;;;18.18;64.28;100021.40;1967644;90;27802;-64
2022/05/27 13:19:36;;;;;;;3.72;1.70;;;;;;;18.42;63.97;100023.47;1964156;87;33076;-64
2022/05/27 13:23:14;;;;;;;4.47;1.62;;;;;;;18.61;63.60;100035.78;2031211;87;29329;-63
2022/05/27 13:26:45;;;;;;;4.30;1.87;;;;;;;18.81;63.30;100034.52;2028126;87;28283;-64
2022/05/27 13:30:00;;;;;;;5.05;1.77;;;;;;;18.94;62.68;100033.82;2033050;87;29987;-62
2022/05/27 13:33:08;;;;;;;5.05;2.00;;;;;;;18.93;62.14;100009.50;2033424;87;31475;-66
2022/05/27 13:36:28;;;;;;;8.80;2.15;;;;;;;18.89;62.40;100012.12;2076276;84;33730;-67
2022/05/27 13:39:43;;;;;;;3.40;1.92;;;;;;;18.84;62.10;99989.48;2103301;84;29577;-66
2022/05/27 13:42:57;;;;;;;6.20;1.75;;;;;;;18.86;61.87;99986.61;2102319;83;27753;-67
2022/05/27 13:46:23;;;;;;;6.25;1.72;;;;;;;18.97;61.81;99980.61;2099144;84;29577;-67
2022/05/27 13:49:43;;;;;;;2.62;1.55;;;;;;;19.10;61.21;99983.56;2095487;84;32152;-67
2022/05/27 13:52:49;;;;;;;5.70;2.10;;;;;;;19.19;61.23;99971.01;1995451;89;30243;-67
2022/05/27 13:55:57;;;;;;;4.00;1.72;;;;;;;19.17;61.00;99967.09;1995056;89;28347;-62
2022/05/27 14:02:24;;;;;;;8.18;2.85;;;;;;;18.91;60.74;99966.70;1893278;93;31219;-65
2022/05/27 14:05:29;;;;;;;2.98;1.80;;;;;;;18.75;60.49;99974.00;1897291;93;35332;-66
2022/05/27 14:08:47;;;;;;;6.95;2.60;;;;;;;18.50;60.40;99959.92;1897406;93;33003;-66
2022/05/27 14:12:02;;;;;;;4.87;1.70;;;;;;;18.48;60.35;99972.25;1897388;92;30252;-69
2022/05/27 14:15:31;;;;;;;4.17;2.27;;;;;;;18.56;60.83;99949.86;1893546;94;28369;-65
2022/05/27 14:18:36;;;;;;;5.97;2.00;;;;;;;18.74;60.62;99956.88;1892466;94;27884;-67
2022/05/27 14:25:02;;;;;;;4.08;2.50;;;;;;;18.98;60.32;99937.54;1842863;96;35177;-65
2022/05/27 14:28:26;;;;;;;3.50;1.72;;;;;;;19.19;60.25;99927.55;1937419;89;30180;-68
2022/05/27 14:31:40;;;;;;;6.45;1.92;;;;;;;19.32;59.96;99927.29;1998924;89;28000;-64
2022/05/27 14:34:58;;;;;;;4.70;1.95;;;;;;;19.48;59.78;99922.14;1966004;90;27907;-64
2022/05/27 14:38:23;;;;;;;3.37;1.90;;;;;;;19.61;59.62;99941.36;1965885;90;31125;-69
2022/05/27 14:41:33;;;;;;;4.10;1.87;;;;;;;19.55;58.98;99944.16;1928633;91;33424;-68
2022/05/27 14:44:53;;;;;;;3.12;1.70;;;;;;;19.43;58.69;99943.44;1922824;92;29916;-67
2022/05/27 14:47:52;;;;;;;4.00;1.90;;;;;;;19.32;58.37;99939.52;1928440;92;28042;-65
2022/05/27 14:50:55;;;;;;;4.25;1.80;;;;;;;19.28;58.39;99927.56;1928392;92;30066;-67
2022/05/27 14:54:29;;;;;;;3.50;1.72;;;;;;;19.32;58.30;99910.48;1928593;91;31977;-65
2022/05/27 14:57:40;;;;;;;2.10;1.70;;;;;;;19.38;58.29;99903.13;1928245;92;33037;-65
2022/05/27 15:00:49;;;;;;;2.58;1.87;;;;;;;19.48;58.26;99904.97;1907579;93;29373;-68
2022/05/27 15:04:16;;;;;;;4.65;1.87;;;;;;;19.48;58.28;99900.89;1936194;90;27794;-65
2022/05/27 15:07:21;;;;;;;3.62;1.80;;;;;;;19.40;58.19;99904.33;1938748;91;30398;-69
2022/05/27 15:10:38;;;;;;;3.45;2.12;;;;;;;19.27;58.10;99901.41;1939109;91;28468;-67
2022/05/27 15:13:56;;;;;;;3.02;1.87;;;;;;;19.31;57.81;99891.11;1940599;91;33129;-68
2022/05/27 15:17:04;;;;;;;2.80;1.70;;;;;;;19.32;57.61;99883.31;1943157;91;29464;-65
2022/05/27 15:20:14;;;;;;;2.37;1.85;;;;;;;19.32;58.01;99896.05;1943218;91;27815;-68
2022/05/27 15:23:25;;;;;;;4.20;2.08;;;;;;;19.39;57.89;99893.98;1943085;91;29174;-68
2022/05/27 15:33:31;;;;;;;4.97;2.70;;;;;;;19.72;57.24;99886.84;1975777;90;30534;-66
2022/05/27 15:36:30;;;;;;;7.25;2.77;;;;;;;19.78;57.42;99885.41;1977442;84;28371;-68
2022/05/27 15:39:35;;;;;;;3.80;2.52;;;;;;;19.67;56.72;99887.81;2074256;85;27755;-68
2022/05/27 15:42:47;;;;;;;6.15;2.20;;;;;;;19.53;56.88;99880.44;2070918;85;31759;-65
2022/05/27 15:45:53;;;;;;;2.98;2.05;;;;;;;19.49;56.88;99868.66;2070290;86;33347;-68